NCAR-RAP Real-Time Weather Data

Output produced by METARs form (06 May 2021  16:41 UTC)
found at http://weather.rap.ucar.edu/surface/
 
KDLH 061555Z 34012G22KT 280V030 10SM FEW070 11/M07 A3013 RMK AO2 SLP215 T01061067
KDLH 061455Z 35012KT 10SM CLR 09/M06 A3015 RMK AO2 SLP221 T00941061 50004
KDLH 061355Z 36011G17KT 10SM CLR 08/M06 A3015 RMK AO2 SLP221 T00831061
KDLH 061255Z 33006KT 10SM FEW070 06/M04 A3015 RMK AO2 SLP220 T00611044
KDLH 061155Z 33004KT 10SM FEW070 04/M03 A3013 RMK AO2 SLP216 T00441028 10067 20011 55001
KDLH 061055Z 00000KT 10SM FEW080 02/M03 A3012 RMK AO2 SLP212 T00171033
KDLH 060955Z 28003KT 10SM BKN080 04/M02 A3012 RMK AO2 SLP212 T00441022
KDLH 060855Z 24006KT 10SM BKN065 OVC080 06/M03 A3014 RMK AO2 SLP215 T00561028 55001
KDLH 060755Z 34004KT 10SM SCT080 BKN100 06/M05 A3013 RMK AO2 SLP215 T00561050
KDLH 060655Z 36010KT 10SM OVC055 06/M04 A3014 RMK AO2 SLP216 T00611044
KDLH 060555Z 01006KT 10SM SCT065 OVC085 06/M06 A3014 RMK AO2 SLP217 T00561061 10111 20039 401331022 53004
KDLH 060455Z 02007KT 10SM CLR 04/M05 A3013 RMK AO2 SLP216 T00441050
KDLH 060355Z 35004KT 10SM CLR 04/M06 A3013 RMK AO2 SLP215 T00441056
KDLH 060255Z 00000KT 10SM CLR 06/M06 A3013 RMK AO2 SLP213 T00561056 53007
KDLH 060155Z 34004KT 10SM FEW100 08/M06 A3012 RMK AO2 SLP209 T00831061